Sacramento, California
Traffic Map
Current Weather Conditions
Sacramento, California
Clear
Clear
66°
Feels Like: 66°
Wind Chill: 66° Ceiling: Unl
Heat Index: 66° Visibility: 10mi
Dew Point: 56° Wind: 10mph
Humidity: 70% Direction: 210° (SSW)
Pressure: 29.83in Gusts: 21mph
Raw Report DataKSAC 020553Z AUTO 21009G18KT 10SM CLR 19/13 A2983 RMK AO2 SLP102 T01890133 10322 20189 50012
Traffic Incident Summary
Active as of:
Severity:
Category:
InformationThere was an issue retrieving the traffic information for this location. Please try a different location or try again shortly.
Advertisements
Track Severe Weather on mobile